Latest Weather Observations for Port Augusta

IDS60801

Issued at 6:02 pm CDT Friday 9 December 2016 (issued every 30 minutes, with the page automatically refreshed every 10 minutes)

About weather observations | Map of weather stations | Latest weather observations for SA | Other Formats
Station Details ID: 018201 Name: PORT AUGUSTA AERO Lat: -32.51 Lon: 137.72 Height: 13.97 m
Data from the previous 72 hours. | See also: Recent months at Port Augusta
Date/Time
CDT
Temp
°C
App
Temp
°C
Dew
Point
°C
Rel
Hum
%
Delta-T
°C
Wind Press
QNH
hPa
Press
MSL
hPa
Rain since
9am
mm
Dir  Spd
km/h
Gust
km/h
Spd
kts
Gust
kts
09/06:00pm 22.1 15.2 7.1 38 7.7 SE 33 43 18 23 1019.7 1019.6 0.0
09/05:30pm 22.1 15.6 6.7 37 7.8 SE 30 44 16 24 1019.4 1019.3 0.0
09/05:00pm 22.1 14.9 5.9 35 8.2 SE 33 44 18 24 1019.4 1019.3 0.0
09/04:30pm 23.4 16.7 5.8 32 8.9 SE 30 37 16 20 1019.5 1019.4 0.0
09/04:00pm 23.5 17.1 5.4 31 9.1 SSE 28 35 15 19 1019.8 1019.7 0.0
09/03:30pm 23.4 16.9 4.9 30 9.2 SSE 28 39 15 21 1019.9 1019.8 0.0
09/03:00pm 23.1 16.5 4.1 29 9.3 SSE 28 39 15 21 1020.1 1020.0 0.0
09/02:30pm 22.7 16.5 4.2 30 9.0 SSE 26 35 14 19 1020.4 1020.3 0.0
09/02:00pm 22.3 15.4 4.8 32 8.6 SSE 30 41 16 22 1020.6 1020.5 0.0
09/01:30pm 22.4 16.3 4.9 32 8.6 SSE 26 37 14 20 1020.9 1020.8 0.0
09/01:00pm 20.9 14.4 4.5 34 8.0 SSE 28 41 15 22 1021.4 1021.3 0.0
09/12:30pm 20.6 14.8 4.2 34 7.9 SSE 24 35 13 19 1021.7 1021.6 0.0
09/12:00pm 19.8 13.2 4.3 36 7.4 S 28 39 15 21 1021.8 1021.7 0.0
09/11:42am 19.3 12.6 3.5 35 7.4 SSE 28 46 15 25 1021.9 1021.8 0.0
09/11:30am 18.7 11.1 4.1 38 6.9 SE 33 44 18 24 1021.9 1021.8 0.0
09/11:00am 18.2 11.2 5.8 44 6.1 SE 32 43 17 23 1021.9 1021.8 0.0
09/10:30am 17.9 11.0 6.4 47 5.7 SE 32 46 17 25 1022.0 1021.9 0.0
09/10:00am 18.2 11.7 6.4 46 5.8 SE 30 46 16 25 1022.2 1022.1 0.0
09/09:30am 16.8 10.6 6.3 50 5.1 SE 28 41 15 22 1022.2 1022.1 0.0
09/09:00am 16.5 10.0 6.6 52 4.8 SE 30 43 16 23 1022.1 1022.0 0.0
09/08:30am 16.8 10.1 7.2 53 4.8 SE 32 39 17 21 1021.8 1021.7 0.0
09/08:00am 15.9 9.9 6.9 55 4.4 SE 28 37 15 20 1021.6 1021.5 0.0
09/07:30am 15.2 9.7 7.7 61 3.7 SE 26 37 14 20 1021.2 1021.1 0.0
09/07:00am 14.7 8.9 8.0 64 3.3 SE 28 33 15 18 1020.9 1020.8 0.0
09/06:30am 14.3 9.1 8.7 69 2.8 SE 26 33 14 18 1020.5 1020.4 0.0
09/06:00am 14.3 8.9 7.8 65 3.2 SE 26 32 14 17 1020.0 1019.9 0.0
09/05:30am 14.4 9.4 7.9 65 3.2 SSE 24 32 13 17 1019.7 1019.6 0.0
09/05:00am 14.0 10.8 10.0 77 2.1 S 17 22 9 12 1019.4 1019.3 0.0
09/04:30am 13.7 10.2 10.3 80 1.8 SSE 19 26 10 14 1019.1 1019.0 0.0
09/04:00am 14.3 11.8 9.7 74 2.4 SE 13 19 7 10 1019.0 1018.9 0.0
09/03:30am 15.1 10.9 7.6 61 3.7 S 19 24 10 13 1018.9 1018.8 0.0
09/03:00am 14.8 11.4 7.8 63 3.5 SSW 15 20 8 11 1018.5 1018.4 0.0
09/02:30am 14.4 11.4 7.5 63 3.4 SSW 13 15 7 8 1018.4 1018.3 0.0
09/02:00am 15.3 11.6 7.8 61 3.7 S 17 22 9 12 1018.4 1018.3 0.0
09/01:30am 16.0 11.7 7.7 58 4.1 SSW 20 24 11 13 1018.4 1018.3 0.0
09/01:00am 15.8 11.7 7.8 59 4.0 SSW 19 26 10 14 1018.5 1018.4 0.0
09/12:30am 15.2 10.4 7.5 60 3.8 SSW 22 28 12 15 1018.5 1018.4 0.0
09/12:00am 15.2 10.8 7.3 59 3.9 S 20 26 11 14 1018.2 1018.1 0.0
 
Date/Time
CDT
Temp
°C
App
Temp
°C
Dew
Point
°C
Rel
Hum
%
Delta-T
°C
Wind Press
QNH
hPa
Press
MSL
hPa
Rain since
9am
mm
Dir  Spd
km/h
Gust
km/h
Spd
kts
Gust
kts
08/11:30pm 15.8 10.7 7.8 59 4.0 S 24 30 13 16 1018.2 1018.1 0.0
08/11:00pm 16.5 9.8 8.2 58 4.2 S 33 43 18 23 1018.0 1017.9 0.0
08/10:30pm 16.8 9.9 8.8 59 4.1 S 35 46 19 25 1017.9 1017.8 0.0
08/10:00pm 16.9 8.9 9.1 60 4.0 S 41 48 22 26 1017.2 1017.1 0.0
08/09:30pm 17.1 8.7 9.0 59 4.2 S 43 54 23 29 1016.8 1016.7 0.0
08/09:00pm 17.2 8.2 8.9 58 4.3 S 46 57 25 31 1016.3 1016.2 0.0
08/08:32pm 17.6 9.9 8.7 56 4.6 S 39 57 21 31 1015.5 1015.4 0.0
08/08:30pm 17.6 10.3 8.7 56 4.6 S 37 52 20 28 1015.5 1015.4 0.0
08/08:00pm 18.2 10.5 8.5 53 5.0 S 39 50 21 27 1015.1 1015.0 0.0
08/07:30pm 18.9 10.5 8.8 52 5.3 SSE 43 54 23 29 1014.4 1014.3 0.0
08/07:00pm 19.6 11.7 9.5 52 5.4 SSE 41 52 22 28 1013.9 1013.8 0.0
08/06:30pm 20.9 13.3 9.2 47 6.2 SSE 39 50 21 27 1013.1 1013.0 0.0
08/06:00pm 20.9 13.4 9.5 48 6.1 SSE 39 50 21 27 1012.8 1012.7 0.0
08/05:50pm 21.9 14.9 9.8 46 6.5 SSE 37 46 20 25 1012.6 1012.5 0.0
08/05:30pm 21.2 13.7 10.7 51 5.7 SSE 41 56 22 30 1012.4 1012.3 0.0
08/05:00pm 21.5 14.1 10.0 48 6.2 SE 39 52 21 28 1012.0 1011.9 0.0
08/04:30pm 21.3 14.0 10.2 49 6.0 SE 39 52 21 28 1011.8 1011.7 0.0
08/04:00pm 22.3 14.0 9.5 44 6.9 SSE 43 56 23 30 1011.5 1011.4 0.0
08/03:30pm 22.1 15.4 9.6 45 6.7 S 35 52 19 28 1011.7 1011.6 0.0
08/03:25pm 24.8 17.3 4.5 27 10.1 SW 33 52 18 28 1011.7 1011.6 0.0
08/03:16pm 25.6 17.0 4.7 26 10.5 SSW 39 54 21 29 1011.6 1011.5 0.0
08/03:10pm 23.7 16.1 4.1 28 9.6 SSW 33 54 18 29 1011.5 1011.4 0.0
08/03:00pm 23.6 14.8 3.5 27 9.8 SW 39 59 21 32 1011.5 1011.4 0.0
08/02:47pm 25.6 18.0 4.1 25 10.7 SSW 33 57 18 31 1011.5 1011.4 0.0
08/02:30pm 24.9 16.6 4.1 26 10.3 SSW 37 54 20 29 1011.6 1011.5 0.0
08/02:00pm 24.5 14.8 3.8 26 10.2 SW 44 67 24 36 1011.9 1011.8 0.0
08/01:47pm 24.7 16.2 3.4 25 10.4 SW 37 59 20 32 1012.1 1012.0 0.0
08/01:30pm 24.3 16.4 4.1 27 10.0 SW 35 50 19 27 1012.3 1012.2 0.0
08/01:10pm 24.3 16.2 5.1 29 9.7 SW 37 56 20 30 1012.2 1012.1 0.0
08/01:00pm 23.8 15.9 6.1 32 9.0 SW 37 52 20 28 1012.4 1012.3 0.0
08/12:30pm 22.2 13.9 6.0 35 8.2 SW 39 50 21 27 1012.3 1012.2 0.0
08/12:00pm 22.5 14.4 5.4 33 8.6 SW 37 54 20 29 1012.0 1011.9 0.0
08/11:53am 22.8 15.7 5.7 33 8.6 SW 32 54 17 29 1011.9 1011.8 0.0
08/11:30am 21.7 14.0 5.2 34 8.2 SW 35 50 19 27 1012.0 1011.9 0.0
08/11:13am 21.3 14.2 5.6 36 7.8 SW 32 50 17 27 1012.0 1011.9 0.0
08/11:00am 21.1 13.5 5.9 37 7.6 SW 35 48 19 26 1011.9 1011.8 0.0
08/10:30am 19.8 13.2 6.2 41 6.8 SW 30 46 16 25 1011.9 1011.8 0.0
08/10:00am 18.7 11.7 6.9 46 5.9 SW 33 43 18 23 1011.9 1011.8 0.0
08/09:30am 19.0 11.1 6.2 43 6.4 SW 37 50 20 27 1011.6 1011.5 0.0
08/09:00am 18.5 11.1 6.7 46 5.9 SW 35 44 19 24 1011.6 1011.5 3.4
08/08:30am 17.6 10.0 7.6 52 5.1 SW 37 56 20 30 1011.7 1011.6 3.4
08/08:27am 17.5 9.8 7.0 50 5.2 SW 37 56 20 30 1011.6 1011.5 3.4
08/08:00am 17.0 11.2 7.9 55 4.6 SW 28 43 15 23 1011.0 1010.9 3.4
08/07:30am 16.4 9.5 8.9 61 3.9 SW 35 54 19 29 1010.3 1010.2 3.4
08/07:00am 15.8 7.6 9.7 67 3.2 SW 43 54 23 29 1009.5 1009.4 3.4
08/06:39am 15.9 10.4 9.3 65 3.4 SW 28 50 15 27 1008.7 1008.6 3.4
08/06:30am 15.9 11.7 9.8 67 3.2 SSW 22 37 12 20 1008.9 1008.8 3.4
08/06:00am 16.9 10.6 9.8 63 3.7 SW 33 52 18 28 1008.5 1008.4 3.4
08/05:33am 18.2 13.9 13.3 73 2.8 SW 28 46 15 25 1007.8 1007.7 3.4
08/05:30am 18.2 13.4 12.9 71 3.0 SW 30 46 16 25 1007.5 1007.5 3.4
08/05:00am 18.8 14.4 13.0 69 3.3 SSW 28 41 15 22 1007.0 1007.0 3.4
08/04:31am 19.3 14.9 14.1 72 3.0 SW 30 48 16 26 1006.2 1006.2 3.4
08/04:30am 19.4 15.5 14.4 73 2.9 SW 28 41 15 22 1006.2 1006.2 3.4
08/04:13am 19.9 14.7 15.5 76 2.6 SW 37 56 20 30 1005.2 1005.2 3.4
08/04:00am 20.4 14.9 15.8 75 2.7 SW 39 48 21 26 1004.9 1004.9 3.4
08/03:53am 20.6 16.5 16.4 77 2.5 WSW 33 48 18 26 1004.9 1004.9 3.4
08/03:30am 21.3 20.0 17.3 78 2.5 WSW 20 30 11 16 1004.8 1004.8 3.4
08/03:00am 22.3 21.5 18.5 79 2.4 WSW 20 32 11 17 1005.0 1005.0 3.4
08/02:30am 22.4 23.4 20.3 88 1.4 WNW 15 20 8 11 1004.8 1004.8 3.4
08/02:00am 22.1 21.9 19.8 87 1.5 WNW 20 32 11 17 1004.6 1004.6 3.4
08/01:30am 22.1 20.2 20.2 89 1.2 W 30 39 16 21 1004.7 1004.7 2.8
08/01:07am 22.4 19.4 19.9 86 1.6 W 35 50 19 27 1004.9 1004.9 1.2
08/01:00am 22.4 17.8 20.1 87 1.5 W 44 69 24 37 1004.8 1004.8 1.2
08/12:55am 22.2 15.9 19.7 86 1.6 WSW 52 70 28 38 1004.8 1004.8 1.0
08/12:51am 21.9 15.1 19.5 86 1.5 W 54 83 29 45 1004.6 1004.6 1.0
08/12:46am 23.9 17.9 17.9 69 3.8 WNW 46 83 25 45 1003.9 1003.9 0.0
08/12:43am 28.7 22.9 15.9 45 7.9 NW 41 83 22 45 1003.6 1003.6 0.0
08/12:41am 31.0 24.2 11.9 31 11.2 NNW 39 52 21 28 1002.8 1002.8 0.0
08/12:30am 31.1 24.2 11.5 30 11.5 NNW 39 52 21 28 1001.1 1001.1 0.0
08/12:16am 31.0 25.2 11.4 30 11.4 N 33 52 18 28 1001.3 1001.3 0.0
08/12:00am 31.2 24.9 11.1 29 11.7 N 35 48 19 26 1001.2 1001.2 0.0
 
Date/Time
CDT
Temp
°C
App
Temp
°C
Dew
Point
°C
Rel
Hum
%
Delta-T
°C
Wind Press
QNH
hPa
Press
MSL
hPa
Rain since
9am
mm
Dir  Spd
km/h
Gust
km/h
Spd
kts
Gust
kts
07/11:30pm 31.1 24.4 11.0 29 11.7 N 37 48 20 26 1001.0 1001.0 0.0
07/11:00pm 31.2 23.8 10.0 27 12.1 N 39 50 21 27 1001.2 1001.2 0.0
07/10:30pm 31.4 25.0 10.7 28 12.0 N 35 48 19 26 1002.1 1002.1 0.0
07/10:00pm 31.3 25.4 10.6 28 11.9 N 32 43 17 23 1002.6 1002.6 0.0
07/09:30pm 31.8 25.9 10.5 27 12.3 N 32 43 17 23 1002.7 1002.7 0.0
07/09:00pm 32.7 27.5 10.1 25 13.0 N 28 39 15 21 1003.2 1003.2 0.0
07/08:30pm 33.3 27.7 10.0 24 13.4 N 30 41 16 22 1003.4 1003.4 0.0
07/08:00pm 33.5 26.8 9.5 23 13.7 N 35 46 19 25 1003.4 1003.4 0.0
07/07:45pm 33.7 27.0 9.7 23 13.7 N 35 54 19 29 1003.3 1003.3 0.0
07/07:30pm 34.6 27.6 9.8 22 14.3 NNW 37 50 20 27 1003.3 1003.3 0.0
07/07:15pm 34.0 27.6 10.6 24 13.6 N 35 56 19 30 1003.3 1003.3 0.0
07/07:00pm 34.8 26.8 10.6 23 14.1 NNW 43 54 23 29 1003.3 1003.3 0.0
07/06:53pm 35.4 28.7 9.7 21 14.8 NNW 35 54 19 29 1003.4 1003.4 0.0
07/06:30pm 35.0 28.0 10.1 22 14.5 NNW 37 48 20 26 1003.6 1003.6 0.0
07/06:00pm 34.6 27.4 9.1 21 14.6 NNW 37 50 20 27 1004.0 1004.0 0.0
07/05:30pm 35.6 29.2 10.6 22 14.7 N 35 46 19 25 1004.4 1004.4 0.0
07/05:06pm 35.4 29.1 11.1 23 14.3 N 35 54 19 29 1005.0 1005.0 0.0
07/05:00pm 35.0 28.8 11.4 24 13.9 N 35 48 19 26 1005.1 1005.1 0.0
07/04:33pm 35.6 29.7 12.5 24 13.9 N 35 54 19 29 1005.8 1005.8 0.0
07/04:30pm 35.4 29.5 12.4 25 13.8 N 35 52 19 28 1005.9 1005.9 0.0
07/04:10pm 35.8 30.4 12.1 24 14.2 N 32 52 17 28 1006.2 1006.2 0.0
07/04:00pm 34.2 28.7 12.0 26 13.2 N 32 48 17 26 1006.5 1006.5 0.0
07/03:32pm 34.2 28.7 12.0 26 13.2 N 32 54 17 29 1007.0 1007.0 0.0
07/03:30pm 34.3 28.8 12.0 25 13.3 N 32 44 17 24 1007.0 1007.0 0.0
07/03:23pm 33.5 27.4 11.9 27 12.8 NNW 35 46 19 25 1007.3 1007.3 0.0
07/03:10pm 35.5 29.0 11.8 24 14.1 N 37 48 20 26 1007.5 1007.5 0.0
07/03:00pm 33.5 27.6 13.5 29 12.1 N 37 48 20 26 1007.8 1007.7 0.0
07/02:30pm 34.7 29.5 13.5 28 12.9 N 33 46 18 25 1008.4 1008.3 0.0
07/02:10pm 33.7 29.3 14.2 30 11.9 N 30 48 16 26 1008.9 1008.8 0.0
07/02:00pm 32.2 27.0 13.4 32 11.3 N 33 48 18 26 1009.1 1009.0 0.0
07/01:30pm 34.2 29.2 14.1 29 12.3 N 33 52 18 28 1009.7 1009.6 0.0
07/01:02pm 32.2 27.4 13.9 33 11.1 NNW 32 50 17 27 1010.4 1010.3 0.0
07/01:00pm 32.1 27.2 14.3 34 10.9 NNW 33 50 18 27 1010.5 1010.4 0.0
07/12:43pm 32.8 26.6 13.9 31 11.5 N 39 52 21 28 1010.8 1010.7 0.0
07/12:30pm 32.3 27.1 14.4 33 11.0 NNE 35 54 19 29 1011.1 1011.0 0.0
07/12:26pm 32.5 27.2 14.1 32 11.2 NNE 35 54 19 29 1011.1 1011.0 0.0
07/12:00pm 31.5 25.7 12.8 32 11.1 N 35 44 19 24 1011.8 1011.7 0.0
07/11:50am 31.3 26.8 12.6 31 11.1 N 28 46 15 25 1011.9 1011.8 0.0
07/11:30am 30.7 25.8 12.6 33 10.7 NNW 30 43 16 23 1012.4 1012.3 0.0
07/11:00am 29.2 24.2 13.4 38 9.4 N 32 43 17 23 1012.9 1012.8 0.0
07/10:30am 27.3 22.6 13.3 42 8.2 N 30 43 16 23 1013.3 1013.2 0.0
07/10:00am 28.3 23.2 13.0 39 9.0 N 32 43 17 23 1013.5 1013.4 0.0
07/09:30am 26.9 22.7 13.6 44 7.9 N 28 37 15 20 1013.7 1013.6 0.0
07/09:00am 25.5 23.4 13.7 48 6.9 N 17 28 9 15 1013.9 1013.8 0.0
07/08:30am 22.1 20.4 12.4 54 5.5 NNW 13 20 7 11 1014.0 1013.9 0.0
07/08:00am 20.2 19.2 12.4 61 4.4 W 9 11 5 6 1014.1 1014.0 0.0
07/07:30am 18.2 17.5 11.5 65 3.7 W 6 7 3 4 1014.0 1013.9 0.0
07/07:00am 16.5 15.7 11.6 73 2.7 NNW 7 9 4 5 1013.7 1013.6 0.0
07/06:30am 14.0 12.3 9.8 76 2.2 N 9 11 5 6 1013.5 1013.4 0.0
07/06:00am 13.2 11.3 9.1 76 2.1 N 9 9 5 5 1013.7 1013.6 0.0
07/05:30am 14.2 12.5 8.4 68 2.9 SW 7 9 4 5 1013.4 1013.3 0.0
07/05:00am 14.8 13.6 10.2 74 2.4 WNW 7 9 4 5 1013.4 1013.3 0.0
07/04:30am 15.1 14.0 10.5 74 2.4 NW 7 9 4 5 1013.2 1013.1 0.0
07/04:00am 16.8 16.6 12.9 78 2.2 ENE 6 7 3 4 1012.7 1012.6 0.0
07/03:30am 18.1 17.0 11.9 67 3.4 SE 9 13 5 7 1012.8 1012.7 0.0
07/03:00am 18.7 17.4 12.5 67 3.5 SE 11 15 6 8 1013.0 1012.9 0.0
07/02:30am 19.3 17.5 12.1 63 4.0 SE 13 15 7 8 1013.1 1013.0 0.0
07/02:00am 19.3 16.9 12.8 66 3.7 SSE 17 22 9 12 1013.2 1013.1 0.0
07/01:30am 19.8 16.2 11.8 60 4.4 SE 22 28 12 15 1013.7 1013.6 0.0
07/01:00am 20.2 15.9 9.5 50 5.7 SE 22 32 12 17 1014.0 1013.9 0.0
07/12:30am 20.8 16.3 8.4 45 6.5 SE 22 30 12 16 1014.3 1014.2 0.0
07/12:00am 21.0 16.4 9.6 48 6.1 SE 24 32 13 17 1014.5 1014.4 0.0
 
Date/Time
CDT
Temp
°C
App
Temp
°C
Dew
Point
°C
Rel
Hum
%
Delta-T
°C
Wind Press
QNH
hPa
Press
MSL
hPa
Rain since
9am
mm
Dir  Spd
km/h
Gust
km/h
Spd
kts
Gust
kts
06/11:30pm 21.2 17.0 11.2 53 5.5 SE 24 32 13 17 1014.6 1014.5 0.0
06/11:00pm 21.0 18.2 11.3 54 5.4 SE 17 26 9 14 1014.9 1014.8 0.0
06/10:30pm 21.1 18.6 10.9 52 5.6 ESE 15 22 8 12 1015.0 1014.9 0.0
06/10:00pm 21.3 18.6 10.5 50 5.9 ESE 15 20 8 11 1015.0 1014.9 0.0
06/09:30pm 21.5 18.6 10.9 51 5.8 ESE 17 20 9 11 1014.9 1014.8 0.0
06/09:00pm 22.1 19.1 12.1 53 5.6 ESE 19 24 10 13 1014.8 1014.7 0.0
06/08:30pm 22.2 20.4 13.3 57 5.1 ESE 15 17 8 9 1014.6 1014.5 0.0
06/08:00pm 24.2 19.7 8.6 37 8.4 SE 22 28 12 15 1014.3 1014.2 0.0
06/07:30pm 24.9 20.1 8.8 36 8.7 SE 24 33 13 18 1014.0 1013.9 0.0
06/07:00pm 25.6 20.6 8.1 33 9.4 SE 24 32 13 17 1013.8 1013.7 0.0
06/06:30pm 25.9 21.3 8.0 32 9.6 SE 22 28 12 15 1013.5 1013.4 0.0

Other Formats:

Comma delimited format used in spreadsheet applications
http://www.bom.gov.au/fwo/IDS60801/IDS60801.95666.axf

JavaScript Object Notation format (JSON) in row-major order
http://www.bom.gov.au/fwo/IDS60801/IDS60801.95666.json